Badgingarra, Australia
Current Conditions -  °F | °C
As of 11:00 AM on Wednesday 26 Nov 2014 (Local Time) from YPEA Reporting Station
Rain Showers Rain Showers  
Wind Chill: 90°   Ceiling: 13000
Heat Index: 90°   Visibility: 6mi
Dew Point: 46°   Wind: 14mph
Humidity: 22%   Direction: 80°E
Pressure: 29.8"   Gusts: NA
Location:  30.4°S, 115.54°E
Report Text: YPEA 260300Z 08012KT 9999 VCSH BKN130 32/08 Q1009 INTER 0430/0600 VRB25G45KT 4000 TSRA SCT045 FEW090CB
Loading
Personal Weather Stations






























Interactive Weather Map New forecast layout! Learn more

10-Day Weather Forecast

Advertisements
Track Severe Weather on mobile